Time;durP1;ratioP1;P1;durP2;ratioP2;P2;SDS_P1;SDS_P2;PMS_P1;PMS_P2;Temp;Humidity;BMP_temperature;BMP_pressure;BME280_temperature;BME280_humidity;BME280_pressure;Samples;Min_cycle;Max_cycle;Signal;HPM_P1;HPM_P2
2021/12/22 00:01:40;;;;;;;35.95;20.23;;;;;;;-1.36;63.28;100946.44;5026633;28;20132;-74
2021/12/22 00:04:09;;;;;;;40.45;20.25;;;;;;;-1.37;62.96;100955.13;5028956;28;20109;-75
2021/12/22 00:06:37;;;;;;;31.88;18.10;;;;;;;-1.40;63.17;100957.72;5028958;28;20084;-74
2021/12/22 00:09:05;;;;;;;34.35;21.15;;;;;;;-1.45;63.22;100959.53;5005803;28;20110;-75
2021/12/22 00:11:34;;;;;;;41.00;21.38;;;;;;;-1.48;63.28;100966.47;5008932;28;20448;-72
2021/12/22 00:14:01;;;;;;;48.35;26.15;;;;;;;-1.52;63.47;100963.06;5030005;28;20476;-74
2021/12/22 00:16:29;;;;;;;41.65;26.73;;;;;;;-1.59;63.66;100961.41;5025703;28;20071;-75
2021/12/22 00:18:56;;;;;;;39.88;18.70;;;;;;;-1.54;63.31;100963.06;5026478;28;20045;-73
2021/12/22 00:21:23;;;;;;;36.75;17.63;;;;;;;-1.55;62.93;100963.97;5008923;28;20543;-75
2021/12/22 00:23:51;;;;;;;24.75;15.63;;;;;;;-1.56;62.89;100963.97;5026107;28;20072;-75
2021/12/22 00:26:18;;;;;;;37.80;18.55;;;;;;;-1.58;62.77;100968.31;5026543;28;20061;-74
2021/12/22 00:28:48;;;;;;;39.90;23.48;;;;;;;-1.66;63.34;100964.94;5007472;28;20046;-75
2021/12/22 00:31:19;;;;;;;36.95;19.33;;;;;;;-1.63;63.01;100970.94;5025274;28;20046;-75
2021/12/22 00:33:48;;;;;;;38.90;20.70;;;;;;;-1.67;63.38;100966.69;5025572;28;20118;-75
2021/12/22 00:36:19;;;;;;;30.45;18.33;;;;;;;-1.66;63.11;100967.53;5024496;28;20136;-74
2021/12/22 00:38:47;;;;;;;25.83;16.85;;;;;;;-1.63;62.87;100970.09;5023095;28;20163;-75
2021/12/22 00:41:15;;;;;;;37.83;19.58;;;;;;;-1.56;62.56;100971.75;5025945;28;20071;-77
2021/12/22 00:43:42;;;;;;;38.10;21.00;;;;;;;-1.58;62.78;100969.16;5026193;28;20783;-77
2021/12/22 00:46:12;;;;;;;31.02;15.88;;;;;;;-1.50;62.42;100978.59;5027370;28;20129;-75
2021/12/22 00:48:40;;;;;;;28.80;17.95;;;;;;;-1.50;62.43;100973.41;5025566;28;20171;-74
2021/12/22 00:51:11;;;;;;;31.55;21.30;;;;;;;-1.54;62.25;100981.19;5027810;28;20050;-77
2021/12/22 00:53:38;;;;;;;31.40;22.27;;;;;;;-1.55;62.17;100981.22;5037589;28;20048;-74
2021/12/22 00:56:07;;;;;;;42.55;22.42;;;;;;;-1.61;62.23;100984.72;5048365;28;20044;-76
2021/12/22 00:58:36;;;;;;;46.47;24.73;;;;;;;-1.62;62.32;100977.84;5046163;28;20068;-80
2021/12/22 01:01:04;;;;;;;38.83;24.80;;;;;;;-1.59;62.11;100982.97;5046788;28;20051;-78
2021/12/22 01:03:35;;;;;;;44.80;26.48;;;;;;;-1.61;62.09;100984.72;5049005;28;20053;-78
2021/12/22 01:06:04;;;;;;;56.20;29.58;;;;;;;-1.59;61.85;100984.72;5047890;28;20041;-76
2021/12/22 01:08:31;;;;;;;54.95;28.33;;;;;;;-1.62;61.98;100985.63;5045651;28;20049;-76
2021/12/22 01:10:58;;;;;;;54.38;26.67;;;;;;;-1.63;61.95;100993.41;5036169;28;20056;-77
2021/12/22 01:13:27;;;;;;;46.70;28.33;;;;;;;-1.67;61.80;100991.72;5043806;28;20101;-77
2021/12/22 01:15:54;;;;;;;40.40;24.92;;;;;;;-1.70;61.97;100990.00;5041740;28;20061;-77
2021/12/22 01:18:30;;;;;;;39.65;23.60;;;;;;;-1.71;61.70;100993.50;5042462;28;20136;-78
2021/12/22 01:21:08;;;;;;;45.42;22.75;;;;;;;-1.68;61.74;100990.00;5048751;28;20059;-79
2021/12/22 01:23:40;;;;;;;39.60;21.73;;;;;;;-1.74;61.84;100994.38;5048986;28;20064;-77
2021/12/22 01:26:08;;;;;;;33.00;22.08;;;;;;;-1.76;61.38;100995.25;5039929;28;20312;-79
2021/12/22 01:28:41;;;;;;;34.47;20.77;;;;;;;-1.79;61.79;101003.91;5034114;28;20391;-77
2021/12/22 01:31:14;;;;;;;37.72;21.52;;;;;;;-1.89;61.90;101004.88;5035938;28;20046;-79
2021/12/22 01:33:43;;;;;;;35.53;23.30;;;;;;;-1.92;61.93;101000.56;4984914;28;20136;-77
2021/12/22 01:36:12;;;;;;;36.22;20.33;;;;;;;-1.93;61.72;101005.75;5032464;28;20045;-74
2021/12/22 01:38:40;;;;;;;38.72;22.95;;;;;;;-1.97;61.96;101004.09;5011960;28;20049;-75
2021/12/22 01:41:08;;;;;;;37.45;26.02;;;;;;;-2.03;61.78;101005.00;5030458;28;20057;-74
2021/12/22 01:43:40;;;;;;;48.90;27.88;;;;;;;-2.10;62.30;101010.25;5029541;28;20391;-73
2021/12/22 01:46:32;;;;;;;40.88;24.70;;;;;;;-2.12;62.26;101008.50;5025939;28;20052;-75
2021/12/22 01:49:10;;;;;;;38.35;20.45;;;;;;;-2.06;61.86;101014.53;5028672;28;20053;-74
2021/12/22 01:51:48;;;;;;;43.78;23.33;;;;;;;-2.11;61.80;101017.13;5029534;28;20049;-74
2021/12/22 01:54:33;;;;;;;33.63;20.17;;;;;;;-2.13;61.90;101011.13;5012148;28;20070;-79
2021/12/22 01:57:06;;;;;;;34.40;19.42;;;;;;;-2.18;62.09;101007.69;5011252;28;20129;-76
2021/12/22 01:59:39;;;;;;;40.22;19.08;;;;;;;-2.20;61.98;101010.28;5029826;28;20132;-76
2021/12/22 02:02:08;;;;;;;40.08;22.27;;;;;;;-2.23;61.91;101007.75;5030602;28;20053;-75
2021/12/22 02:04:38;;;;;;;44.45;26.15;;;;;;;-2.22;62.24;101009.44;5013885;28;20100;-78
2021/12/22 02:07:11;;;;;;;38.15;22.95;;;;;;;-2.14;61.92;101009.41;5030432;28;20049;-78
2021/12/22 02:09:59;;;;;;;40.72;22.52;;;;;;;-2.07;61.76;101011.09;5013321;28;20639;-78
2021/12/22 02:12:29;;;;;;;37.80;21.80;;;;;;;-2.01;61.78;101010.16;5031831;28;20103;-78
2021/12/22 02:14:57;;;;;;;42.38;22.40;;;;;;;-2.01;62.07;101007.56;5032077;28;20124;-80
2021/12/22 02:17:27;;;;;;;36.03;21.80;;;;;;;-1.93;61.89;101005.75;5035568;28;20096;-82
2021/12/22 02:19:58;;;;;;;42.55;23.02;;;;;;;-1.85;61.52;101005.72;5035054;28;20041;-82
2021/12/22 02:22:28;;;;;;;47.42;27.58;;;;;;;-1.86;61.71;101001.41;5032056;28;20151;-82
2021/12/22 02:24:58;;;;;;;47.47;23.88;;;;;;;-1.78;61.54;101004.78;5033354;28;20132;-78
2021/12/22 02:27:30;;;;;;;35.88;21.77;;;;;;;-1.73;61.64;101006.44;5033833;28;20561;-77
2021/12/22 02:30:00;;;;;;;40.03;20.85;;;;;;;-1.67;61.28;101010.72;5032998;28;20057;-83
2021/12/22 02:33:06;;;;;;;39.45;23.92;;;;;;;-1.66;60.98;101007.22;5034032;28;20053;-78
2021/12/22 02:35:44;;;;;;;42.65;24.23;;;;;;;-1.59;61.03;101008.88;5033149;28;20107;-80
2021/12/22 02:38:17;;;;;;;36.50;22.15;;;;;;;-1.59;60.73;101013.22;5032556;28;20133;-79
2021/12/22 02:40:46;;;;;;;35.78;23.15;;;;;;;-1.50;60.63;101013.13;5033917;28;20064;-81
2021/12/22 02:43:20;;;;;;;35.60;22.42;;;;;;;-1.44;60.59;101013.06;5034727;28;20053;-82
2021/12/22 02:45:47;;;;;;;34.67;20.30;;;;;;;-1.35;60.25;101012.97;5034694;28;20084;-83
2021/12/22 02:48:15;;;;;;;38.80;22.75;;;;;;;-1.42;60.36;101005.28;5035333;28;20107;-82
2021/12/22 02:50:44;;;;;;;38.47;21.20;;;;;;;-1.32;60.30;101012.06;5034293;28;20045;-76
2021/12/22 02:53:16;;;;;;;37.03;19.52;;;;;;;-1.20;59.98;101005.88;5036521;28;20132;-80
2021/12/22 02:55:50;;;;;;;42.13;22.00;;;;;;;-1.22;59.83;101003.31;5028889;28;20101;-77
2021/12/22 02:58:28;;;;;;;34.03;21.23;;;;;;;-1.14;59.62;101000.63;5046583;28;20117;-80
2021/12/22 03:01:10;;;;;;;36.67;21.63;;;;;;;-1.07;59.51;101001.41;5030265;28;20045;-79
2021/12/22 03:03:56;;;;;;;35.65;20.85;;;;;;;-1.08;59.32;101000.56;5048187;28;20056;-82
2021/12/22 03:06:33;;;;;;;30.60;20.25;;;;;;;-1.13;59.52;101002.34;5044774;28;20057;-82
2021/12/22 03:09:01;;;;;;;37.45;20.20;;;;;;;-1.13;59.67;101002.34;5040862;28;20060;-78
2021/12/22 03:11:28;;;;;;;30.42;19.80;;;;;;;-1.13;59.54;100996.28;5034235;28;20045;-79
2021/12/22 03:13:55;;;;;;;41.13;22.60;;;;;;;-1.14;59.77;100999.78;5034326;28;20617;-79
2021/12/22 03:16:23;;;;;;;36.65;21.70;;;;;;;-1.14;59.62;101005.81;5033212;28;20501;-78
2021/12/22 03:18:51;;;;;;;41.83;24.60;;;;;;;-1.19;59.50;101011.06;5039917;28;20662;-79
2021/12/22 03:21:22;;;;;;;33.53;19.90;;;;;;;-1.19;59.83;101018.84;5040342;28;20434;-79
2021/12/22 03:23:55;;;;;;;46.30;24.67;;;;;;;-1.17;59.85;101005.81;5041455;28;20053;-80
2021/12/22 03:26:23;;;;;;;38.45;22.08;;;;;;;-1.16;59.99;101023.13;5035811;28;20049;-79
2021/12/22 03:28:51;;;;;;;29.70;19.60;;;;;;;-1.19;59.83;101013.66;5034845;28;20068;-75
2021/12/22 03:31:19;;;;;;;27.98;19.05;;;;;;;-1.08;59.69;101017.81;5034975;28;20125;-75
2021/12/22 03:33:46;;;;;;;34.55;22.63;;;;;;;-1.14;59.89;101025.69;5033697;28;20121;-75
2021/12/22 03:36:13;;;;;;;31.77;18.88;;;;;;;-1.08;59.72;101023.91;5033339;28;20548;-77
2021/12/22 03:38:41;;;;;;;29.85;17.92;;;;;;;-1.16;60.04;101025.72;5032484;28;20060;-77
2021/12/22 03:41:10;;;;;;;27.90;16.52;;;;;;;-1.18;60.28;101035.25;5023163;28;20131;-80
2021/12/22 03:43:38;;;;;;;29.67;18.67;;;;;;;-1.23;60.38;101030.09;5031353;28;20562;-73
2021/12/22 03:46:05;;;;;;;32.65;18.83;;;;;;;-1.20;60.28;101035.25;5038200;28;20490;-78
2021/12/22 03:48:33;;;;;;;33.72;21.73;;;;;;;-1.19;60.07;101038.69;5039701;28;20081;-73
2021/12/22 03:51:05;;;;;;;32.33;18.80;;;;;;;-1.16;60.30;101039.50;5018295;28;20046;-78
2021/12/22 03:53:33;;;;;;;30.80;17.00;;;;;;;-1.06;59.99;101045.47;5032270;28;20070;-79
2021/12/22 03:56:01;;;;;;;27.90;16.25;;;;;;;-1.05;60.00;101041.97;5032830;28;20075;-78
2021/12/22 03:58:31;;;;;;;33.60;22.63;;;;;;;-1.07;60.15;101048.94;5033694;28;20042;-82
2021/12/22 04:00:59;;;;;;;35.47;22.80;;;;;;;-1.11;60.15;101052.44;5016489;28;20060;-80
2021/12/22 04:03:31;;;;;;;36.70;19.73;;;;;;;-1.08;60.05;101047.22;5033945;28;20160;-79
2021/12/22 04:05:59;;;;;;;33.70;19.85;;;;;;;-1.13;60.23;101036.03;5032420;28;20107;-78
2021/12/22 04:08:26;;;;;;;33.25;23.00;;;;;;;-1.19;59.91;101039.56;5028565;28;20061;-81
2021/12/22 04:10:54;;;;;;;36.88;23.83;;;;;;;-1.20;60.20;101048.22;5030007;28;20060;-77
2021/12/22 04:13:21;;;;;;;35.58;24.73;;;;;;;-1.19;60.41;101049.06;5029703;28;20462;-78
2021/12/22 04:15:53;;;;;;;33.15;23.00;;;;;;;-1.17;60.37;101053.38;5030406;28;20059;-80
2021/12/22 04:18:23;;;;;;;33.63;21.67;;;;;;;-1.16;60.41;101049.03;5016339;28;20128;-80
2021/12/22 04:21:03;;;;;;;33.08;26.25;;;;;;;-1.19;60.59;101049.06;5035729;28;20056;-82
2021/12/22 04:23:30;;;;;;;37.50;26.33;;;;;;;-1.20;60.43;101058.59;5032025;28;20053;-82
2021/12/22 04:25:58;;;;;;;40.47;25.52;;;;;;;-1.20;60.87;101056.00;5012088;28;20108;-80
2021/12/22 04:28:25;;;;;;;41.85;27.95;;;;;;;-1.20;60.59;101057.72;4978305;28;20584;-79
2021/12/22 04:30:56;;;;;;;41.55;27.10;;;;;;;-1.21;60.78;101051.66;5028995;28;20153;-77
2021/12/22 04:33:23;;;;;;;40.88;31.15;;;;;;;-1.27;61.06;101056.09;5028450;28;20128;-77
2021/12/22 04:35:51;;;;;;;41.15;27.80;;;;;;;-1.32;61.08;101060.44;5030609;28;20037;-75
2021/12/22 04:38:19;;;;;;;36.13;24.33;;;;;;;-1.33;61.30;101061.31;5028203;28;20117;-80
2021/12/22 04:40:50;;;;;;;38.80;23.08;;;;;;;-1.37;61.07;101061.38;5030937;28;20084;-83
2021/12/22 04:43:18;;;;;;;36.15;23.17;;;;;;;-1.35;61.05;101062.19;5031166;28;20440;-83
2021/12/22 04:45:45;;;;;;;37.80;22.52;;;;;;;-1.38;60.88;101059.63;5028941;28;20088;-82
2021/12/22 04:48:14;;;;;;;34.08;23.75;;;;;;;-1.40;60.90;101061.38;5016356;28;20195;-84
2021/12/22 04:50:42;;;;;;;29.55;20.25;;;;;;;-1.28;60.82;101065.56;5032829;28;20091;-83
2021/12/22 04:53:13;;;;;;;52.55;27.30;;;;;;;-1.16;60.51;101062.84;5034783;28;20132;-76
2021/12/22 04:55:41;;;;;;;45.58;24.98;;;;;;;-1.06;60.50;101063.63;5030131;28;20127;-81
2021/12/22 04:58:10;;;;;;;38.45;22.92;;;;;;;-0.99;60.61;101060.06;5030315;28;20050;-83
2021/12/22 05:00:40;;;;;;;66.63;36.90;;;;;;;-0.93;60.27;101063.47;5030164;28;20049;-83
2021/12/22 05:03:08;;;;;;;37.22;26.13;;;;;;;-1.01;60.30;101059.25;5032098;28;20208;-81
2021/12/22 05:05:40;;;;;;;55.40;32.25;;;;;;;-0.93;60.17;101055.69;5016487;28;20068;-84
2021/12/22 05:08:09;;;;;;;48.28;27.25;;;;;;;-0.88;60.29;101053.88;5031190;28;20053;-77
2021/12/22 05:10:37;;;;;;;44.25;32.70;;;;;;;-0.88;59.89;101064.25;5039585;28;20049;-79
2021/12/22 05:13:04;;;;;;;53.22;33.53;;;;;;;-0.81;60.31;101051.22;5035509;28;20478;-81
2021/12/22 05:15:38;;;;;;;45.17;26.73;;;;;;;-0.81;60.31;101064.19;5031614;28;20140;-83
2021/12/22 05:18:23;;;;;;;48.50;32.60;;;;;;;-0.79;60.21;101053.78;5034558;28;20045;-84
2021/12/22 05:20:54;;;;;;;58.30;38.08;;;;;;;-0.96;60.50;101067.81;5032763;28;20065;-86
2021/12/22 05:23:24;;;;;;;60.47;34.88;;;;;;;-1.02;60.37;101059.25;5014192;28;20064;-83
2021/12/22 05:25:53;;;;;;;40.00;26.15;;;;;;;-0.92;60.21;101060.84;5031652;28;20606;-81
2021/12/22 05:28:21;;;;;;;41.45;27.98;;;;;;;-0.86;60.09;101057.34;5032206;28;20072;-78
2021/12/22 05:30:48;;;;;;;40.63;22.58;;;;;;;-0.89;60.13;101052.19;5032645;28;20128;-82
2021/12/22 05:33:16;;;;;;;40.22;23.25;;;;;;;-0.88;59.86;101059.94;5031156;28;20045;-79
2021/12/22 05:35:43;;;;;;;31.30;18.13;;;;;;;-0.86;59.93;101062.53;5028796;28;20068;-80
2021/12/22 05:38:12;;;;;;;29.30;17.25;;;;;;;-0.77;59.89;101057.22;5028166;28;20057;-80
2021/12/22 05:40:41;;;;;;;38.17;21.02;;;;;;;-0.72;59.67;101065.81;5013657;28;20599;-81
2021/12/22 05:43:11;;;;;;;32.08;17.20;;;;;;;-0.70;59.85;101069.22;5009166;28;20057;-80
2021/12/22 05:45:39;;;;;;;28.50;13.65;;;;;;;-0.65;59.45;101069.16;4995435;28;20045;-81
2021/12/22 05:48:07;;;;;;;25.60;17.08;;;;;;;-0.65;59.82;101072.63;5027313;28;20633;-74
2021/12/22 05:50:35;;;;;;;29.92;18.85;;;;;;;-0.72;59.29;101080.50;5024917;28;20140;-74
2021/12/22 05:53:01;;;;;;;35.15;22.08;;;;;;;-0.73;59.40;101084.81;5025596;28;20054;-71
2021/12/22 05:55:30;;;;;;;36.80;21.00;;;;;;;-0.79;59.23;101084.91;5023333;28;20402;-71
2021/12/22 05:57:57;;;;;;;29.98;19.92;;;;;;;-0.97;59.08;101086.84;5024420;28;20051;-71
2021/12/22 06:00:24;;;;;;;33.33;18.98;;;;;;;-1.05;59.08;101095.59;5029804;28;20421;-72
2021/12/22 06:02:51;;;;;;;33.58;19.83;;;;;;;-1.15;59.35;101100.03;5027087;28;20071;-73
2021/12/22 06:05:19;;;;;;;37.60;24.58;;;;;;;-1.12;59.22;101099.97;5029245;28;20045;-76
2021/12/22 06:07:47;;;;;;;30.25;19.15;;;;;;;-1.11;59.10;101103.44;5028682;28;20478;-77
2021/12/22 06:10:15;;;;;;;40.95;22.63;;;;;;;-1.18;59.14;101107.81;5032420;28;20528;-85
2021/12/22 06:12:44;;;;;;;35.85;22.52;;;;;;;-1.13;59.18;101112.94;5015957;28;20045;-82
2021/12/22 06:15:11;;;;;;;46.53;23.58;;;;;;;-1.19;58.82;101117.34;5020826;28;20045;-74
2021/12/22 06:17:39;;;;;;;57.17;27.77;;;;;;;-1.20;59.00;101117.34;5033865;28;20671;-72
2021/12/22 06:20:08;;;;;;;52.50;28.92;;;;;;;-1.27;59.34;101123.47;5034105;28;20137;-73
2021/12/22 06:22:36;;;;;;;44.03;25.58;;;;;;;-1.26;59.10;101115.69;5034235;28;20617;-76
2021/12/22 06:25:05;;;;;;;43.95;22.30;;;;;;;-1.31;59.05;101116.59;5034786;28;20062;-73
2021/12/22 06:27:32;;;;;;;39.17;20.48;;;;;;;-1.34;59.21;101122.66;5030138;28;20449;-76
2021/12/22 06:30:01;;;;;;;35.65;21.05;;;;;;;-1.36;59.38;101120.06;5030161;28;20133;-74
2021/12/22 06:32:28;;;;;;;34.75;16.48;;;;;;;-1.32;59.16;101125.25;5034436;28;20388;-77
2021/12/22 06:34:55;;;;;;;30.30;18.33;;;;;;;-1.31;59.09;101122.63;5040043;28;20045;-78
2021/12/22 06:37:24;;;;;;;30.98;19.60;;;;;;;-1.40;59.05;101128.75;5023110;28;20045;-75
2021/12/22 06:39:53;;;;;;;30.73;16.80;;;;;;;-1.38;59.02;101131.34;5032751;28;20084;-79
2021/12/22 06:42:22;;;;;;;36.42;21.42;;;;;;;-1.42;59.02;101133.09;5015438;28;20085;-75
2021/12/22 06:44:50;;;;;;;32.55;16.30;;;;;;;-1.40;58.91;101141.72;5012079;28;20137;-75
2021/12/22 06:47:19;;;;;;;42.03;23.38;;;;;;;-1.46;59.22;101149.56;5009229;28;20141;-77
2021/12/22 06:49:49;;;;;;;35.35;17.42;;;;;;;-1.40;58.92;101143.47;4999919;28;20194;-75
2021/12/22 06:52:16;;;;;;;48.20;23.63;;;;;;;-1.28;58.91;101147.66;4999627;28;20395;-70
2021/12/22 06:54:43;;;;;;;36.13;19.67;;;;;;;-1.26;58.68;101143.31;5000450;28;20080;-73
2021/12/22 06:57:10;;;;;;;53.17;27.83;;;;;;;-1.29;58.46;101149.41;5005831;28;20588;-75
2021/12/22 06:59:38;;;;;;;33.03;17.30;;;;;;;-1.28;58.57;101152.84;5011368;28;20089;-76
2021/12/22 07:02:05;;;;;;;32.25;18.02;;;;;;;-1.27;58.35;101144.19;5004913;28;20046;-79
2021/12/22 07:04:35;;;;;;;39.95;20.52;;;;;;;-1.31;58.15;101161.50;5017295;28;20060;-72
2021/12/22 07:07:03;;;;;;;40.28;18.75;;;;;;;-1.26;58.08;101161.44;4996062;28;20079;-73
2021/12/22 07:09:30;;;;;;;32.92;17.92;;;;;;;-1.19;58.22;101169.19;4998144;28;20049;-73
2021/12/22 07:11:59;;;;;;;31.85;19.42;;;;;;;-1.21;58.06;101172.66;5021610;28;20057;-74
2021/12/22 07:14:28;;;;;;;23.38;13.88;;;;;;;-1.22;58.23;101171.78;5018486;28;20030;-73
2021/12/22 07:16:55;;;;;;;30.45;14.02;;;;;;;-1.12;57.82;101167.38;5016837;28;20050;-72
2021/12/22 07:19:22;;;;;;;30.98;21.15;;;;;;;-1.18;57.88;101175.22;5015837;28;20104;-73
2021/12/22 07:21:50;;;;;;;33.78;20.15;;;;;;;-1.18;57.96;101170.88;5015913;28;20042;-72
2021/12/22 07:24:17;;;;;;;32.30;21.20;;;;;;;-1.12;57.79;101174.28;5015669;28;20084;-73
2021/12/22 07:26:44;;;;;;;33.10;19.45;;;;;;;-1.17;57.32;101171.72;5009657;28;20112;-70
2021/12/22 07:29:12;;;;;;;32.38;23.55;;;;;;;-1.23;57.40;101166.63;5006173;28;20068;-71
2021/12/22 07:31:39;;;;;;;41.15;22.88;;;;;;;-1.24;57.64;101170.06;5003298;28;20740;-73
2021/12/22 07:34:16;;;;;;;37.28;18.35;;;;;;;-1.14;57.39;101171.72;5015122;28;20065;-76
2021/12/22 07:36:47;;;;;;;34.00;20.98;;;;;;;-1.07;57.18;101175.13;5011361;28;20058;-73
2021/12/22 07:39:16;;;;;;;29.90;17.77;;;;;;;-1.06;57.33;101167.31;5009879;28;20057;-72
2021/12/22 07:41:42;;;;;;;37.17;19.70;;;;;;;-1.02;57.26;101181.97;5016608;28;20144;-72
2021/12/22 07:44:09;;;;;;;28.50;14.98;;;;;;;-1.01;56.85;101178.53;5004947;28;20053;-71
2021/12/22 07:46:37;;;;;;;21.88;13.70;;;;;;;-0.86;56.98;101176.66;5003314;28;20521;-74
2021/12/22 07:49:04;;;;;;;39.95;20.63;;;;;;;-0.81;56.81;101185.22;5001241;28;20616;-71
2021/12/22 07:51:31;;;;;;;36.10;20.10;;;;;;;-0.83;56.57;101186.97;4999935;28;20129;-72
2021/12/22 07:53:57;;;;;;;30.30;18.45;;;;;;;-0.83;56.61;101185.25;5000638;28;20049;-71
2021/12/22 07:56:26;;;;;;;40.40;23.13;;;;;;;-0.80;56.69;101186.94;5001210;28;20084;-72
2021/12/22 07:58:54;;;;;;;41.53;24.80;;;;;;;-0.79;56.75;101189.53;4999886;28;20050;-73
2021/12/22 08:01:21;;;;;;;40.40;24.05;;;;;;;-0.87;56.52;101182.69;5001285;28;20522;-71
2021/12/22 08:03:48;;;;;;;33.55;17.27;;;;;;;-0.76;56.57;101186.03;5001790;28;20058;-75
2021/12/22 08:06:15;;;;;;;35.50;20.17;;;;;;;-0.71;56.78;101192.03;4999554;28;20137;-73
2021/12/22 08:08:42;;;;;;;37.60;24.38;;;;;;;-0.71;56.42;101176.47;4997980;28;20569;-72
2021/12/22 08:11:10;;;;;;;41.83;24.30;;;;;;;-0.78;56.22;101185.19;5003190;28;20114;-73
2021/12/22 08:13:38;;;;;;;43.63;27.70;;;;;;;-0.73;56.70;101182.56;5007339;28;20050;-72
2021/12/22 08:16:06;;;;;;;41.03;29.10;;;;;;;-0.88;56.31;101188.75;5012322;28;20085;-71
2021/12/22 08:18:33;;;;;;;38.00;21.25;;;;;;;-0.87;56.25;101193.91;5007656;28;20049;-72
2021/12/22 08:21:00;;;;;;;36.90;21.20;;;;;;;-0.70;56.31;101193.75;5006070;28;20048;-71
2021/12/22 08:23:27;;;;;;;38.33;23.98;;;;;;;-0.72;56.28;101195.50;5001461;28;20049;-71
2021/12/22 08:25:54;;;;;;;38.70;26.15;;;;;;;-0.77;55.96;101192.97;4999845;28;20116;-72
2021/12/22 08:28:22;;;;;;;41.05;24.35;;;;;;;-0.75;56.38;101199.88;4998158;28;20050;-72
2021/12/22 08:30:50;;;;;;;46.28;29.17;;;;;;;-0.73;56.05;101203.31;4999587;28;20129;-74
2021/12/22 08:33:25;;;;;;;33.08;21.15;;;;;;;-0.67;56.17;101204.09;5002852;28;20124;-78
2021/12/22 08:38:54;;;;;;;35.67;23.67;;;;;;;-0.52;55.49;101199.59;4999270;28;20143;-72
2021/12/22 08:41:29;;;;;;;38.03;22.48;;;;;;;-0.53;55.63;101201.34;4997463;28;20076;-73
2021/12/22 08:43:59;;;;;;;29.10;18.20;;;;;;;-0.40;55.47;101202.06;5002206;28;20081;-74
2021/12/22 08:46:29;;;;;;;45.20;24.05;;;;;;;-0.34;55.79;101206.31;5019779;28;20048;-71
2021/12/22 08:48:59;;;;;;;34.38;23.77;;;;;;;-0.42;55.30;101220.22;5001714;28;20048;-75
2021/12/22 08:51:33;;;;;;;44.75;24.50;;;;;;;-0.40;55.43;101212.44;5021111;28;20037;-77
2021/12/22 08:56:48;;;;;;;40.42;24.73;;;;;;;-0.38;55.09;101215.88;5034506;28;20084;-75
2021/12/22 08:59:16;;;;;;;40.85;20.63;;;;;;;-0.25;55.15;101214.88;5030846;28;20580;-75
2021/12/22 09:01:46;;;;;;;38.80;24.08;;;;;;;-0.18;55.15;101218.25;5028350;28;20054;-78
2021/12/22 09:04:13;;;;;;;37.85;22.58;;;;;;;-0.29;55.20;101215.78;5024394;28;20471;-73
2021/12/22 09:06:41;;;;;;;38.72;24.05;;;;;;;-0.30;54.82;101219.25;5028213;28;20096;-77
2021/12/22 09:09:11;;;;;;;42.80;27.27;;;;;;;-0.29;54.81;101212.31;5029945;28;20076;-76
2021/12/22 09:11:39;;;;;;;30.65;19.88;;;;;;;-0.35;54.76;101222.78;5025296;28;20103;-74
2021/12/22 09:14:08;;;;;;;40.47;26.33;;;;;;;-0.37;54.71;101227.97;5024779;28;20485;-77
2021/12/22 09:16:37;;;;;;;34.97;23.30;;;;;;;-0.39;54.98;101229.75;5022492;28;20156;-75
2021/12/22 09:19:09;;;;;;;30.65;20.08;;;;;;;-0.35;54.94;101215.00;5001860;28;20669;-78
2021/12/22 09:21:36;;;;;;;37.33;20.52;;;;;;;-0.25;54.47;101217.47;5013700;28;20670;-70
2021/12/22 09:24:05;;;;;;;38.67;21.00;;;;;;;-0.24;54.26;101208.78;5016735;28;20057;-72
2021/12/22 09:26:35;;;;;;;33.95;20.55;;;;;;;-0.21;54.54;101213.94;5015671;28;20060;-72
2021/12/22 09:29:03;;;;;;;30.58;20.83;;;;;;;-0.10;54.21;101220.75;5018225;28;20597;-72
2021/12/22 09:31:31;;;;;;;35.85;22.27;;;;;;;-0.12;54.10;101206.91;5014273;28;20046;-70
2021/12/22 09:33:58;;;;;;;31.63;18.00;;;;;;;-0.14;53.84;101221.66;5019789;28;20147;-73
2021/12/22 09:36:27;;;;;;;32.20;16.98;;;;;;;-0.10;53.76;101215.53;5021005;28;20480;-73
2021/12/22 09:38:55;;;;;;;33.70;21.55;;;;;;;-0.10;53.58;101215.53;5016864;28;20164;-73
2021/12/22 09:41:22;;;;;;;45.78;22.67;;;;;;;-0.12;53.67;101212.13;5019809;28;20874;-72
2021/12/22 09:43:52;;;;;;;29.25;20.20;;;;;;;-0.18;53.52;101213.06;5022285;28;20520;-71
2021/12/22 09:46:22;;;;;;;31.02;18.25;;;;;;;-0.16;52.96;101213.91;5016614;28;20484;-75
2021/12/22 09:48:53;;;;;;;35.78;20.20;;;;;;;-0.17;53.05;101204.38;5020807;28;20594;-70
2021/12/22 09:54:12;;;;;;;32.15;19.38;;;;;;;0.02;53.12;101198.94;5017577;28;20075;-72
2021/12/22 09:56:42;;;;;;;37.72;21.35;;;;;;;0.07;53.16;101192.78;5018929;28;20049;-72
2021/12/22 09:59:10;;;;;;;33.75;20.02;;;;;;;0.05;52.76;101197.16;5014528;28;20058;-69
2021/12/22 10:01:37;;;;;;;26.67;17.48;;;;;;;0.07;52.46;101197.97;5014856;28;20049;-71
2021/12/22 10:04:09;;;;;;;35.53;19.73;;;;;;;0.01;52.62;101192.03;5015983;28;20057;-72
2021/12/22 10:06:36;;;;;;;30.98;18.15;;;;;;;-0.06;52.22;101202.47;5015604;28;20045;-72
2021/12/22 10:09:06;;;;;;;32.42;18.13;;;;;;;-0.08;52.32;101196.47;5016871;28;20049;-72
2021/12/22 10:11:35;;;;;;;30.60;19.45;;;;;;;-0.10;52.16;101197.38;5017309;28;20060;-69
2021/12/22 10:14:16;;;;;;;29.75;19.52;;;;;;;-0.09;52.23;101201.66;5015996;28;20101;-72
2021/12/22 10:16:46;;;;;;;34.85;19.40;;;;;;;-0.05;52.19;101204.22;5017605;28;20068;-71
2021/12/22 10:19:16;;;;;;;32.45;18.98;;;;;;;-0.06;52.14;101199.03;5018837;28;20106;-76
2021/12/22 10:21:53;;;;;;;27.88;17.75;;;;;;;0.04;52.29;101198.03;5020494;28;20053;-79
2021/12/22 10:24:32;;;;;;;31.05;19.35;;;;;;;0.10;52.17;101195.34;5021879;28;20520;-71
2021/12/22 10:27:04;;;;;;;37.15;20.30;;;;;;;0.06;52.42;101196.28;5020312;28;20275;-72
2021/12/22 10:29:33;;;;;;;29.30;19.20;;;;;;;-0.01;52.23;101185.09;5019315;28;20055;-73
2021/12/22 10:32:08;;;;;;;28.90;18.10;;;;;;;0.09;52.04;101191.06;5021535;28;20079;-73
2021/12/22 10:34:36;;;;;;;28.65;17.83;;;;;;;0.16;51.83;101197.00;5020387;28;20553;-73
2021/12/22 10:37:03;;;;;;;37.45;20.42;;;;;;;0.30;51.91;101191.59;5018588;28;20053;-72
2021/12/22 10:39:32;;;;;;;25.10;15.75;;;;;;;0.35;51.72;101197.59;5016657;28;20042;-72
2021/12/22 10:42:05;;;;;;;45.65;22.33;;;;;;;0.46;51.50;101190.50;5016326;28;20073;-71
2021/12/22 10:44:37;;;;;;;46.15;23.88;;;;;;;0.49;51.47;101193.03;5015447;28;20049;-69
2021/12/22 10:47:20;;;;;;;46.10;22.50;;;;;;;0.56;51.74;101202.47;5017120;28;20049;-69
2021/12/22 10:49:59;;;;;;;31.83;20.65;;;;;;;0.53;51.30;101192.09;5015562;28;20270;-76
2021/12/22 10:52:27;;;;;;;29.67;21.55;;;;;;;0.50;51.24;101205.13;5024551;28;20153;-75
2021/12/22 10:55:11;;;;;;;30.83;22.33;;;;;;;0.59;51.23;101200.69;4992032;28;20115;-78
2021/12/22 10:57:44;;;;;;;37.45;20.13;;;;;;;0.68;50.89;101200.53;5027472;28;20033;-77
2021/12/22 11:00:17;;;;;;;37.45;21.98;;;;;;;0.77;50.52;101203.00;5022956;28;20050;-77
2021/12/22 11:02:50;;;;;;;31.30;21.40;;;;;;;0.94;50.15;101205.31;5024103;28;20136;-79
2021/12/22 11:05:27;;;;;;;34.45;19.85;;;;;;;0.93;49.95;101195.78;5027648;28;20049;-81
2021/12/22 11:07:57;;;;;;;31.33;20.23;;;;;;;0.94;49.98;101189.72;5022504;28;20061;-76
2021/12/22 11:10:26;;;;;;;35.15;20.30;;;;;;;0.94;50.02;101195.75;5022303;28;20100;-77
2021/12/22 11:13:17;;;;;;;31.98;20.67;;;;;;;1.08;50.05;101199.84;5005135;28;20653;-80
2021/12/22 11:15:48;;;;;;;33.65;16.60;;;;;;;1.27;49.94;101189.97;5027092;28;20053;-79
2021/12/22 11:18:31;;;;;;;37.33;18.58;;;;;;;1.38;49.94;101188.00;5027953;28;20126;-78
2021/12/22 11:21:16;;;;;;;32.63;18.00;;;;;;;1.49;49.88;101190.41;5027055;28;20049;-81
2021/12/22 11:23:44;;;;;;;31.45;19.15;;;;;;;1.38;49.15;101184.56;5031538;28;20209;-79
2021/12/22 11:26:15;;;;;;;24.15;16.20;;;;;;;1.30;49.38;101188.16;5025812;28;20647;-76
2021/12/22 11:28:45;;;;;;;34.08;18.52;;;;;;;1.19;49.50;101190.13;5023153;28;20053;-76
2021/12/22 11:31:18;;;;;;;33.22;19.45;;;;;;;1.20;49.69;101193.56;5025700;28;20787;-80